Terminal Aerodrome Forecast
Issued by NWS Brownsville, TX

Home | Current Version | Previous Version | Text Only | Print | Product List | Glossary On
Versions: 1 2 3 4 5 6 7 8 9 10 11 12 13 14 15 16 17 18
000
FTUS44 KBRO 272000 AAA
TAFHRL
TAF AMD
KHRL 272044Z 2721/2818 10006KT P6SM FEW060
     FM280100 VRB05KT P6SM SKC
      TEMPO 2810/2814 5SM BR
     FM281500 19008KT P6SM SKC=

USA.gov is the U.S. government's official web portal to all federal, state and local government web resources and services.